Time,TemperatureF,DewpointF,PressureIn,WindDirection,WindDirectionDegrees,WindSpeedMPH,WindSpeedGustMPH,Humidity,HourlyPrecipIn,Conditions,Clouds,dailyrainin,SoftwareType,DateUTC
2015-05-05 00:07:00,67.0,48.0,29.95,WNW,288,3.0,12.0,50,0.00,,,0.00,weatherlink.com 1.10,2015-05-05 04:07:00,
2015-05-05 00:22:00,65.9,49.0,29.95,WNW,295,4.0,10.0,54,0.00,,,0.00,weatherlink.com 1.10,2015-05-05 04:22:00,
2015-05-05 00:37:00,65.5,49.0,29.95,SW,217,1.0,9.0,56,0.00,,,0.00,weatherlink.com 1.10,2015-05-05 04:37:00,
2015-05-05 00:52:00,65.0,49.0,29.95,NW,304,3.0,6.0,57,0.00,,,0.00,weatherlink.com 1.10,2015-05-05 04:52:00,
2015-05-05 01:07:00,64.6,49.0,29.94,WNW,289,3.0,5.0,57,0.00,,,0.00,weatherlink.com 1.10,2015-05-05 05:07:00,
2015-05-05 01:22:00,64.5,49.0,29.94,West,276,3.0,9.0,58,0.00,,,0.00,weatherlink.com 1.10,2015-05-05 05:22:00,
2015-05-05 01:38:00,64.5,50.0,29.93,WNW,296,4.0,8.0,59,0.00,,,0.00,weatherlink.com 1.10,2015-05-05 05:38:00,
2015-05-05 01:52:00,63.9,50.0,29.95,WSW,257,5.0,14.0,62,0.00,,,0.00,weatherlink.com 1.10,2015-05-05 05:52:00,
2015-05-05 02:07:00,62.5,53.0,29.95,WNW,296,2.0,16.0,70,0.00,,,0.00,weatherlink.com 1.10,2015-05-05 06:07:00,
2015-05-05 02:22:00,60.8,53.0,29.96,WNW,286,4.0,14.0,76,0.00,,,0.00,weatherlink.com 1.10,2015-05-05 06:22:00,
2015-05-05 02:37:00,60.2,54.0,29.96,NW,313,3.0,12.0,79,0.00,,,0.00,weatherlink.com 1.10,2015-05-05 06:37:00,
2015-05-05 02:52:00,59.8,54.0,29.96,WNW,290,4.0,9.0,80,0.00,,,0.00,weatherlink.com 1.10,2015-05-05 06:52:00,
2015-05-05 03:07:00,60.1,54.0,29.97,NW,313,12.0,12.0,80,0.00,,,0.00,weatherlink.com 1.10,2015-05-05 07:07:00,
2015-05-05 03:22:00,60.2,54.0,29.98,NNW,333,8.0,16.0,80,0.00,,,0.00,weatherlink.com 1.10,2015-05-05 07:22:00,
2015-05-05 03:37:00,59.7,54.0,30.00,NW,313,10.0,17.0,82,0.00,,,0.00,weatherlink.com 1.10,2015-05-05 07:37:00,
2015-05-05 03:52:00,57.7,52.0,30.00,North,350,8.0,14.0,81,0.00,,,0.00,weatherlink.com 1.10,2015-05-05 07:52:00,
2015-05-05 04:08:00,57.7,51.0,30.00,NNW,327,9.0,15.0,79,0.00,,,0.00,weatherlink.com 1.10,2015-05-05 08:08:00,
2015-05-05 04:23:00,57.8,51.0,30.01,NW,322,5.0,13.0,79,0.00,,,0.00,weatherlink.com 1.10,2015-05-05 08:23:00,
2015-05-05 04:38:00,57.9,51.0,30.02,NW,307,4.0,9.0,77,0.00,,,0.00,weatherlink.com 1.10,2015-05-05 08:38:00,
2015-05-05 04:53:00,58.0,51.0,30.02,SSE,161,4.0,4.0,77,0.00,,,0.00,weatherlink.com 1.10,2015-05-05 08:53:00,
2015-05-05 05:08:00,57.7,50.0,30.02,NW,325,2.0,5.0,76,0.00,,,0.00,weatherlink.com 1.10,2015-05-05 09:08:00,
2015-05-05 05:23:00,57.8,50.0,30.03,NNW,339,3.0,4.0,76,0.00,,,0.00,weatherlink.com 1.10,2015-05-05 09:23:00,
2015-05-05 05:38:00,57.7,50.0,30.03,WSW,257,1.0,4.0,75,0.00,,,0.00,weatherlink.com 1.10,2015-05-05 09:38:00,
2015-05-05 05:53:00,57.7,49.0,30.04,WNW,299,2.0,6.0,74,0.00,,,0.00,weatherlink.com 1.10,2015-05-05 09:53:00,
2015-05-05 06:08:00,57.6,49.0,30.05,NW,304,7.0,16.0,73,0.00,,,0.00,weatherlink.com 1.10,2015-05-05 10:08:00,
2015-05-05 06:23:00,56.9,46.0,30.08,North,11,7.0,16.0,68,0.00,,,0.00,weatherlink.com 1.10,2015-05-05 10:23:00,
2015-05-05 06:38:00,55.5,42.0,30.09,NW,317,5.0,13.0,60,0.00,,,0.00,weatherlink.com 1.10,2015-05-05 10:38:00,
2015-05-05 06:53:00,54.8,41.0,30.11,WNW,285,3.0,12.0,59,0.00,,,0.00,weatherlink.com 1.10,2015-05-05 10:53:00,
2015-05-05 07:08:00,53.6,41.0,30.11,North,11,4.0,12.0,62,0.00,,,0.00,weatherlink.com 1.10,2015-05-05 11:08:00,
2015-05-05 07:23:00,53.0,41.0,30.12,NW,325,1.0,12.0,63,0.00,,,0.00,weatherlink.com 1.10,2015-05-05 11:23:00,
2015-05-05 07:38:00,53.0,40.0,30.13,West,279,3.0,12.0,61,0.00,,,0.00,weatherlink.com 1.10,2015-05-05 11:38:00,
2015-05-05 07:53:00,52.8,40.0,30.14,WNW,286,1.0,5.0,62,0.00,,,0.00,weatherlink.com 1.10,2015-05-05 11:53:00,
2015-05-05 08:08:00,52.5,40.0,30.14,NW,323,4.0,9.0,63,0.00,,,0.00,weatherlink.com 1.10,2015-05-05 12:08:00,
2015-05-05 08:23:00,52.4,40.0,30.14,NW,309,4.0,8.0,63,0.00,,,0.00,weatherlink.com 1.10,2015-05-05 12:23:00,
2015-05-05 08:38:00,52.4,40.0,30.14,NW,321,5.0,6.0,63,0.00,,,0.00,weatherlink.com 1.10,2015-05-05 12:38:00,
2015-05-05 08:53:00,52.9,40.0,30.14,North,9,1.0,6.0,62,0.00,,,0.00,weatherlink.com 1.10,2015-05-05 12:53:00,
2015-05-05 09:08:00,53.5,39.0,30.14,NW,310,5.0,10.0,58,0.00,,,0.00,weatherlink.com 1.10,2015-05-05 13:08:00,
2015-05-05 09:23:00,54.1,39.0,30.14,NNW,340,9.0,11.0,56,0.00,,,0.00,weatherlink.com 1.10,2015-05-05 13:23:00,
2015-05-05 09:38:00,55.2,39.0,30.14,WNW,292,4.0,10.0,55,0.00,,,0.00,weatherlink.com 1.10,2015-05-05 13:38:00,
2015-05-05 09:53:00,54.9,39.0,30.15,NW,311,5.0,10.0,55,0.00,,,0.00,weatherlink.com 1.10,2015-05-05 13:53:00,
2015-05-05 10:08:00,54.1,39.0,30.16,NNW,331,5.0,16.0,57,0.00,,,0.00,weatherlink.com 1.10,2015-05-05 14:08:00,
2015-05-05 10:23:00,56.0,39.0,30.15,NNW,331,3.0,8.0,54,0.00,,,0.00,weatherlink.com 1.10,2015-05-05 14:23:00,
2015-05-05 10:38:00,58.2,38.0,30.15,NNE,19,10.0,17.0,47,0.00,,,0.00,weatherlink.com 1.10,2015-05-05 14:38:00,
2015-05-05 10:53:00,58.2,34.0,30.16,NW,319,8.0,17.0,40,0.00,,,0.00,weatherlink.com 1.10,2015-05-05 14:53:00,
2015-05-05 11:08:00,58.1,30.0,30.15,WNW,296,5.0,21.0,34,0.00,,,0.00,weatherlink.com 1.10,2015-05-05 15:08:00,
2015-05-05 11:24:00,60.9,31.0,30.15,WNW,288,7.0,15.0,33,0.00,,,0.00,weatherlink.com 1.10,2015-05-05 15:24:00,
2015-05-05 11:39:00,61.7,28.0,30.15,NNW,331,14.0,17.0,28,0.00,,,0.00,weatherlink.com 1.10,2015-05-05 15:39:00,
2015-05-05 11:54:00,61.4,26.0,30.15,WNW,284,10.0,23.0,26,0.00,,,0.00,weatherlink.com 1.10,2015-05-05 15:54:00,
2015-05-05 12:09:00,62.5,29.0,30.15,WNW,289,4.0,15.0,28,0.00,,,0.00,weatherlink.com 1.10,2015-05-05 16:09:00,
2015-05-05 12:24:00,61.3,26.0,30.15,NW,319,9.0,20.0,26,0.00,,,0.00,weatherlink.com 1.10,2015-05-05 16:24:00,
2015-05-05 12:39:00,61.8,26.0,30.15,WSW,250,3.0,18.0,26,0.00,,,0.00,weatherlink.com 1.10,2015-05-05 16:39:00,
2015-05-05 12:54:00,62.1,26.0,30.15,NNW,334,11.0,19.0,25,0.00,,,0.00,weatherlink.com 1.10,2015-05-05 16:54:00,
2015-05-05 13:09:00,62.7,26.0,30.14,NW,314,6.0,21.0,25,0.00,,,0.00,weatherlink.com 1.10,2015-05-05 17:09:00,
2015-05-05 13:24:00,63.1,27.0,30.14,North,350,14.0,18.0,25,0.00,,,0.00,weatherlink.com 1.10,2015-05-05 17:24:00,
2015-05-05 13:39:00,63.8,27.0,30.14,NW,318,10.0,24.0,25,0.00,,,0.00,weatherlink.com 1.10,2015-05-05 17:39:00,
2015-05-05 13:54:00,63.9,26.0,30.14,North,350,6.0,17.0,24,0.00,,,0.00,weatherlink.com 1.10,2015-05-05 17:54:00,
2015-05-05 14:09:00,64.8,29.0,30.13,North,350,9.0,17.0,26,0.00,,,0.00,weatherlink.com 1.10,2015-05-05 18:09:00,
2015-05-05 14:24:00,66.4,30.0,30.13,WNW,301,7.0,14.0,26,0.00,,,0.00,weatherlink.com 1.10,2015-05-05 18:24:00,
2015-05-05 14:39:00,66.5,30.0,30.12,NNW,346,5.0,20.0,25,0.00,,,0.00,weatherlink.com 1.10,2015-05-05 18:39:00,
2015-05-05 14:54:00,66.3,31.0,30.11,NW,306,4.0,14.0,27,0.00,,,0.00,weatherlink.com 1.10,2015-05-05 18:54:00,
2015-05-05 15:09:00,66.9,29.0,30.12,West,266,7.0,15.0,24,0.00,,,0.00,weatherlink.com 1.10,2015-05-05 19:09:00,
2015-05-05 15:24:00,66.3,25.0,30.11,NW,304,7.0,14.0,21,0.00,,,0.00,weatherlink.com 1.10,2015-05-05 19:24:00,
2015-05-05 15:39:00,66.7,24.0,30.11,NW,324,5.0,16.0,20,0.00,,,0.00,weatherlink.com 1.10,2015-05-05 19:39:00,
2015-05-05 15:54:00,66.9,28.0,30.10,NW,304,9.0,13.0,23,0.00,,,0.00,weatherlink.com 1.10,2015-05-05 19:54:00,
2015-05-05 16:09:00,66.7,30.0,30.11,North,350,3.0,16.0,25,0.00,,,0.00,weatherlink.com 1.10,2015-05-05 20:09:00,
2015-05-05 16:24:00,67.3,29.0,30.10,WNW,283,6.0,13.0,24,0.00,,,0.00,weatherlink.com 1.10,2015-05-05 20:24:00,
2015-05-05 16:39:00,67.2,31.0,30.09,NNW,335,5.0,12.0,26,0.00,,,0.00,weatherlink.com 1.10,2015-05-05 20:39:00,
2015-05-05 16:54:00,67.1,30.0,30.09,NW,313,8.0,13.0,25,0.00,,,0.00,weatherlink.com 1.10,2015-05-05 20:54:00,
2015-05-05 17:09:00,66.3,26.0,30.09,NNW,336,8.0,15.0,22,0.00,,,0.00,weatherlink.com 1.10,2015-05-05 21:09:00,
2015-05-05 17:24:00,66.2,23.0,30.09,NW,325,6.0,10.0,19,0.00,,,0.00,weatherlink.com 1.10,2015-05-05 21:24:00,
2015-05-05 17:39:00,65.9,21.0,30.09,WNW,298,5.0,19.0,18,0.00,,,0.00,weatherlink.com 1.10,2015-05-05 21:39:00,